sensor_id;sensor_type;location;lat;lon;timestamp;pressure;altitude;pressure_sealevel;temperature;humidity
57050;BME280;42935;50.966;16.992;2023-02-12T00:00:11;103023.17;;;3.58;100.00
57050;BME280;42935;50.966;16.992;2023-02-12T00:03:27;103037.07;;;3.61;100.00
57050;BME280;42935;50.966;16.992;2023-02-12T00:06:38;103044.16;;;3.61;100.00
57050;BME280;42935;50.966;16.992;2023-02-12T00:09:51;103048.59;;;3.61;100.00
57050;BME280;42935;50.966;16.992;2023-02-12T00:13:00;103035.98;;;3.57;100.00
57050;BME280;42935;50.966;16.992;2023-02-12T00:16:15;103041.45;;;3.57;100.00
57050;BME280;42935;50.966;16.992;2023-02-12T00:19:34;103044.23;;;3.57;100.00
57050;BME280;42935;50.966;16.992;2023-02-12T00:22:51;103056.52;;;3.60;100.00
57050;BME280;42935;50.966;16.992;2023-02-12T00:26:09;103056.12;;;3.58;100.00
57050;BME280;42935;50.966;16.992;2023-02-12T00:29:22;103058.61;;;3.61;100.00
57050;BME280;42935;50.966;16.992;2023-02-12T00:32:34;103049.95;;;3.54;100.00
57050;BME280;42935;50.966;16.992;2023-02-12T00:35:45;103060.62;;;3.61;100.00
57050;BME280;42935;50.966;16.992;2023-02-12T00:38:59;103060.52;;;3.61;100.00
57050;BME280;42935;50.966;16.992;2023-02-12T00:42:06;103066.38;;;3.59;100.00
57050;BME280;42935;50.966;16.992;2023-02-12T00:45:23;103061.61;;;3.54;100.00
57050;BME280;42935;50.966;16.992;2023-02-12T00:48:32;103076.60;;;3.57;100.00
57050;BME280;42935;50.966;16.992;2023-02-12T00:51:50;103071.96;;;3.53;100.00
57050;BME280;42935;50.966;16.992;2023-02-12T00:54:55;103082.55;;;3.57;100.00
57050;BME280;42935;50.966;16.992;2023-02-12T00:58:07;103085.11;;;3.51;100.00
57050;BME280;42935;50.966;16.992;2023-02-12T01:01:22;103075.62;;;3.50;100.00
57050;BME280;42935;50.966;16.992;2023-02-12T01:04:32;103070.19;;;3.47;100.00
57050;BME280;42935;50.966;16.992;2023-02-12T01:07:38;103082.25;;;3.48;100.00
57050;BME280;42935;50.966;16.992;2023-02-12T01:10:57;103093.14;;;3.53;100.00
57050;BME280;42935;50.966;16.992;2023-02-12T01:14:06;103102.66;;;3.59;100.00
57050;BME280;42935;50.966;16.992;2023-02-12T01:17:24;103088.35;;;3.55;100.00
57050;BME280;42935;50.966;16.992;2023-02-12T01:20:34;103097.03;;;3.60;100.00
57050;BME280;42935;50.966;16.992;2023-02-12T01:23:50;103098.70;;;3.59;100.00
57050;BME280;42935;50.966;16.992;2023-02-12T01:27:03;103107.16;;;3.58;100.00
57050;BME280;42935;50.966;16.992;2023-02-12T01:30:15;103110.18;;;3.57;100.00
57050;BME280;42935;50.966;16.992;2023-02-12T01:33:32;103118.57;;;3.54;100.00
57050;BME280;42935;50.966;16.992;2023-02-12T01:36:48;103091.43;;;3.45;100.00
57050;BME280;42935;50.966;16.992;2023-02-12T01:40:10;103112.67;;;3.50;100.00
57050;BME280;42935;50.966;16.992;2023-02-12T01:43:23;103116.98;;;3.52;100.00
57050;BME280;42935;50.966;16.992;2023-02-12T01:46:35;103125.21;;;3.54;100.00
57050;BME280;42935;50.966;16.992;2023-02-12T01:49:47;103121.66;;;3.51;100.00
57050;BME280;42935;50.966;16.992;2023-02-12T01:53:05;103125.63;;;3.44;100.00
57050;BME280;42935;50.966;16.992;2023-02-12T01:56:23;103128.22;;;3.45;100.00
57050;BME280;42935;50.966;16.992;2023-02-12T01:59:37;103133.22;;;3.41;100.00
57050;BME280;42935;50.966;16.992;2023-02-12T02:02:54;103125.83;;;3.32;100.00
57050;BME280;42935;50.966;16.992;2023-02-12T02:06:22;103137.68;;;3.41;100.00
57050;BME280;42935;50.966;16.992;2023-02-12T02:09:40;103132.35;;;3.42;100.00
57050;BME280;42935;50.966;16.992;2023-02-12T02:12:52;103129.90;;;3.40;100.00
57050;BME280;42935;50.966;16.992;2023-02-12T02:16:21;103122.33;;;3.34;100.00
57050;BME280;42935;50.966;16.992;2023-02-12T02:30:09;103155.08;;;3.44;100.00
57050;BME280;42935;50.966;16.992;2023-02-12T02:36:56;103159.50;;;3.44;100.00
57050;BME280;42935;50.966;16.992;2023-02-12T02:43:39;103148.28;;;3.26;100.00
57050;BME280;42935;50.966;16.992;2023-02-12T02:46:51;103160.40;;;3.31;100.00
57050;BME280;42935;50.966;16.992;2023-02-12T02:50:14;103170.85;;;3.38;100.00
57050;BME280;42935;50.966;16.992;2023-02-12T02:53:31;103168.77;;;3.35;100.00
57050;BME280;42935;50.966;16.992;2023-02-12T02:56:50;103184.20;;;3.41;100.00
57050;BME280;42935;50.966;16.992;2023-02-12T03:00:26;103186.78;;;3.38;100.00
57050;BME280;42935;50.966;16.992;2023-02-12T03:07:09;103187.87;;;3.38;100.00
57050;BME280;42935;50.966;16.992;2023-02-12T03:10:19;103185.37;;;3.32;100.00
57050;BME280;42935;50.966;16.992;2023-02-12T03:13:44;103183.58;;;3.31;100.00
57050;BME280;42935;50.966;16.992;2023-02-12T03:17:06;103189.63;;;3.34;100.00
57050;BME280;42935;50.966;16.992;2023-02-12T03:20:23;103188.91;;;3.35;100.00
57050;BME280;42935;50.966;16.992;2023-02-12T03:27:14;103202.97;;;3.38;100.00
57050;BME280;42935;50.966;16.992;2023-02-12T03:30:17;103217.99;;;3.44;100.00
57050;BME280;42935;50.966;16.992;2023-02-12T03:36:53;103234.52;;;3.47;100.00
57050;BME280;42935;50.966;16.992;2023-02-12T03:47:00;103242.48;;;3.48;100.00
57050;BME280;42935;50.966;16.992;2023-02-12T03:53:37;103247.94;;;3.47;100.00
57050;BME280;42935;50.966;16.992;2023-02-12T03:56:56;103227.76;;;3.33;100.00
57050;BME280;42935;50.966;16.992;2023-02-12T04:00:17;103242.65;;;3.35;100.00
57050;BME280;42935;50.966;16.992;2023-02-12T04:03:31;103257.79;;;3.42;100.00
57050;BME280;42935;50.966;16.992;2023-02-12T04:06:45;103247.03;;;3.37;100.00
57050;BME280;42935;50.966;16.992;2023-02-12T04:09:56;103264.22;;;3.43;100.00
57050;BME280;42935;50.966;16.992;2023-02-12T04:13:27;103265.30;;;3.46;100.00
57050;BME280;42935;50.966;16.992;2023-02-12T04:20:15;103278.95;;;3.43;100.00
57050;BME280;42935;50.966;16.992;2023-02-12T04:33:46;103289.83;;;3.36;100.00
57050;BME280;42935;50.966;16.992;2023-02-12T04:37:11;103300.48;;;3.39;100.00
57050;BME280;42935;50.966;16.992;2023-02-12T04:40:23;103295.33;;;3.31;100.00
57050;BME280;42935;50.966;16.992;2023-02-12T04:43:36;103306.92;;;3.37;100.00
57050;BME280;42935;50.966;16.992;2023-02-12T04:46:50;103303.12;;;3.30;100.00
57050;BME280;42935;50.966;16.992;2023-02-12T04:50:02;103304.05;;;3.32;100.00
57050;BME280;42935;50.966;16.992;2023-02-12T04:53:20;103305.63;;;3.30;100.00
57050;BME280;42935;50.966;16.992;2023-02-12T04:56:33;103317.09;;;3.42;100.00
57050;BME280;42935;50.966;16.992;2023-02-12T04:59:48;103314.05;;;3.48;100.00
57050;BME280;42935;50.966;16.992;2023-02-12T05:02:55;103313.34;;;3.52;100.00
57050;BME280;42935;50.966;16.992;2023-02-12T05:06:08;103309.22;;;3.55;100.00
57050;BME280;42935;50.966;16.992;2023-02-12T05:09:18;103332.05;;;3.64;100.00
57050;BME280;42935;50.966;16.992;2023-02-12T05:12:36;103334.02;;;3.61;100.00
57050;BME280;42935;50.966;16.992;2023-02-12T05:15:46;103336.28;;;3.56;100.00
57050;BME280;42935;50.966;16.992;2023-02-12T05:18:56;103330.66;;;3.49;100.00
57050;BME280;42935;50.966;16.992;2023-02-12T05:22:11;103342.06;;;3.58;100.00
57050;BME280;42935;50.966;16.992;2023-02-12T05:25:29;103332.96;;;3.53;100.00
57050;BME280;42935;50.966;16.992;2023-02-12T05:28:44;103348.80;;;3.53;100.00
57050;BME280;42935;50.966;16.992;2023-02-12T05:32:03;103344.57;;;3.46;100.00
57050;BME280;42935;50.966;16.992;2023-02-12T05:35:16;103356.18;;;3.48;100.00
57050;BME280;42935;50.966;16.992;2023-02-12T05:38:34;103342.47;;;3.41;100.00
57050;BME280;42935;50.966;16.992;2023-02-12T05:41:46;103351.20;;;3.47;100.00
57050;BME280;42935;50.966;16.992;2023-02-12T05:44:53;103354.37;;;3.51;100.00
57050;BME280;42935;50.966;16.992;2023-02-12T05:48:06;103369.66;;;3.45;100.00
57050;BME280;42935;50.966;16.992;2023-02-12T05:51:19;103367.59;;;3.36;100.00
57050;BME280;42935;50.966;16.992;2023-02-12T05:54:30;103377.49;;;3.51;100.00
57050;BME280;42935;50.966;16.992;2023-02-12T05:57:43;103375.57;;;3.46;100.00
57050;BME280;42935;50.966;16.992;2023-02-12T06:00:56;103394.60;;;3.52;100.00
57050;BME280;42935;50.966;16.992;2023-02-12T06:04:06;103394.48;;;3.42;100.00
57050;BME280;42935;50.966;16.992;2023-02-12T06:07:21;103396.75;;;3.57;100.00
57050;BME280;42935;50.966;16.992;2023-02-12T06:10:38;103393.84;;;3.59;100.00
57050;BME280;42935;50.966;16.992;2023-02-12T06:13:51;103358.66;;;3.31;100.00
57050;BME280;42935;50.966;16.992;2023-02-12T06:17:09;103426.11;;;3.71;100.00
57050;BME280;42935;50.966;16.992;2023-02-12T06:20:27;103428.98;;;3.73;100.00
57050;BME280;42935;50.966;16.992;2023-02-12T06:23:44;103424.77;;;3.63;100.00
57050;BME280;42935;50.966;16.992;2023-02-12T06:26:56;103437.73;;;3.78;100.00
57050;BME280;42935;50.966;16.992;2023-02-12T06:30:11;103443.82;;;3.82;100.00
57050;BME280;42935;50.966;16.992;2023-02-12T06:33:18;103441.98;;;3.87;100.00
57050;BME280;42935;50.966;16.992;2023-02-12T06:36:28;103455.82;;;3.77;100.00
57050;BME280;42935;50.966;16.992;2023-02-12T06:39:46;103456.92;;;3.79;100.00
57050;BME280;42935;50.966;16.992;2023-02-12T06:42:53;103473.66;;;3.86;100.00
57050;BME280;42935;50.966;16.992;2023-02-12T06:46:10;103467.27;;;3.54;100.00
57050;BME280;42935;50.966;16.992;2023-02-12T06:49:23;103476.49;;;3.64;100.00
57050;BME280;42935;50.966;16.992;2023-02-12T06:52:36;103470.05;;;3.61;100.00
57050;BME280;42935;50.966;16.992;2023-02-12T06:55:43;103483.64;;;3.68;100.00
57050;BME280;42935;50.966;16.992;2023-02-12T06:58:57;103484.25;;;3.71;100.00
57050;BME280;42935;50.966;16.992;2023-02-12T07:02:10;103499.11;;;3.62;100.00
57050;BME280;42935;50.966;16.992;2023-02-12T07:05:26;103467.55;;;3.38;100.00
57050;BME280;42935;50.966;16.992;2023-02-12T07:08:44;103497.39;;;3.63;100.00
57050;BME280;42935;50.966;16.992;2023-02-12T07:12:02;103487.85;;;3.58;100.00
57050;BME280;42935;50.966;16.992;2023-02-12T07:15:13;103483.22;;;3.50;100.00
57050;BME280;42935;50.966;16.992;2023-02-12T07:18:27;103502.66;;;3.54;100.00
57050;BME280;42935;50.966;16.992;2023-02-12T07:21:37;103509.48;;;3.70;100.00
57050;BME280;42935;50.966;16.992;2023-02-12T07:24:46;103524.73;;;3.93;100.00
57050;BME280;42935;50.966;16.992;2023-02-12T07:27:56;103508.69;;;3.94;100.00
57050;BME280;42935;50.966;16.992;2023-02-12T07:31:11;103530.68;;;4.14;100.00
57050;BME280;42935;50.966;16.992;2023-02-12T07:34:30;103535.37;;;4.20;100.00
57050;BME280;42935;50.966;16.992;2023-02-12T07:37:40;103527.89;;;4.26;100.00
57050;BME280;42935;50.966;16.992;2023-02-12T07:40:48;103527.64;;;4.20;100.00
57050;BME280;42935;50.966;16.992;2023-02-12T07:44:03;103511.16;;;4.09;100.00
57050;BME280;42935;50.966;16.992;2023-02-12T07:47:20;103528.87;;;3.85;100.00
57050;BME280;42935;50.966;16.992;2023-02-12T07:50:27;103533.16;;;3.83;100.00
57050;BME280;42935;50.966;16.992;2023-02-12T07:53:37;103536.05;;;3.95;100.00
57050;BME280;42935;50.966;16.992;2023-02-12T07:56:54;103537.63;;;3.97;100.00
57050;BME280;42935;50.966;16.992;2023-02-12T08:00:11;103550.56;;;4.09;100.00
57050;BME280;42935;50.966;16.992;2023-02-12T08:03:19;103551.99;;;4.13;100.00
57050;BME280;42935;50.966;16.992;2023-02-12T08:06:28;103553.39;;;4.21;100.00
57050;BME280;42935;50.966;16.992;2023-02-12T08:09:42;103547.77;;;4.32;100.00
57050;BME280;42935;50.966;16.992;2023-02-12T08:12:51;103553.80;;;4.28;100.00
57050;BME280;42935;50.966;16.992;2023-02-12T08:16:08;103553.11;;;4.34;100.00
57050;BME280;42935;50.966;16.992;2023-02-12T08:19:14;103564.55;;;4.41;100.00
57050;BME280;42935;50.966;16.992;2023-02-12T08:22:20;103572.17;;;4.47;100.00
57050;BME280;42935;50.966;16.992;2023-02-12T08:25:28;103569.42;;;4.47;100.00
57050;BME280;42935;50.966;16.992;2023-02-12T08:28:41;103559.91;;;4.62;100.00
57050;BME280;42935;50.966;16.992;2023-02-12T08:32:01;103553.81;;;4.63;100.00
57050;BME280;42935;50.966;16.992;2023-02-12T08:35:19;103550.73;;;4.70;100.00
57050;BME280;42935;50.966;16.992;2023-02-12T08:38:33;103559.75;;;4.90;100.00
57050;BME280;42935;50.966;16.992;2023-02-12T08:41:42;103561.01;;;4.94;100.00
57050;BME280;42935;50.966;16.992;2023-02-12T08:44:51;103547.52;;;4.98;100.00
57050;BME280;42935;50.966;16.992;2023-02-12T08:48:00;103560.64;;;5.29;100.00
57050;BME280;42935;50.966;16.992;2023-02-12T08:51:20;103566.37;;;5.33;100.00
57050;BME280;42935;50.966;16.992;2023-02-12T08:54:30;103561.72;;;5.32;100.00
57050;BME280;42935;50.966;16.992;2023-02-12T08:57:41;103574.93;;;5.30;100.00
57050;BME280;42935;50.966;16.992;2023-02-12T09:00:55;103568.93;;;5.29;100.00
57050;BME280;42935;50.966;16.992;2023-02-12T09:04:02;103569.07;;;5.25;100.00
57050;BME280;42935;50.966;16.992;2023-02-12T09:07:19;103584.86;;;5.56;100.00
57050;BME280;42935;50.966;16.992;2023-02-12T09:10:31;103578.58;;;5.70;100.00
57050;BME280;42935;50.966;16.992;2023-02-12T09:13:49;103580.73;;;5.77;100.00
57050;BME280;42935;50.966;16.992;2023-02-12T09:16:59;103593.91;;;5.66;100.00
57050;BME280;42935;50.966;16.992;2023-02-12T09:20:09;103601.04;;;5.71;100.00
57050;BME280;42935;50.966;16.992;2023-02-12T09:23:24;103601.69;;;5.57;100.00
57050;BME280;42935;50.966;16.992;2023-02-12T09:26:38;103596.72;;;5.31;100.00
57050;BME280;42935;50.966;16.992;2023-02-12T09:29:52;103609.61;;;5.43;100.00
57050;BME280;42935;50.966;16.992;2023-02-12T09:33:06;103620.24;;;5.37;100.00
57050;BME280;42935;50.966;16.992;2023-02-12T09:36:18;103615.58;;;5.35;100.00
57050;BME280;42935;50.966;16.992;2023-02-12T09:39:24;103614.56;;;5.42;100.00
57050;BME280;42935;50.966;16.992;2023-02-12T09:46:07;103633.16;;;5.70;100.00
57050;BME280;42935;50.966;16.992;2023-02-12T09:52:46;103630.79;;;5.82;100.00
57050;BME280;42935;50.966;16.992;2023-02-12T09:55:57;103629.38;;;5.74;100.00
57050;BME280;42935;50.966;16.992;2023-02-12T09:59:08;103630.90;;;5.85;100.00
57050;BME280;42935;50.966;16.992;2023-02-12T10:02:17;103627.06;;;5.99;100.00
57050;BME280;42935;50.966;16.992;2023-02-12T10:05:31;103613.77;;;6.05;100.00
57050;BME280;42935;50.966;16.992;2023-02-12T10:22:32;103626.02;;;6.00;100.00
57050;BME280;42935;50.966;16.992;2023-02-12T10:28:58;103617.30;;;5.85;100.00
57050;BME280;42935;50.966;16.992;2023-02-12T10:35:32;103608.19;;;6.11;100.00
57050;BME280;42935;50.966;16.992;2023-02-12T10:38:42;103568.63;;;5.87;100.00
57050;BME280;42935;50.966;16.992;2023-02-12T10:45:28;103615.36;;;6.58;100.00
57050;BME280;42935;50.966;16.992;2023-02-12T10:48:37;103612.41;;;6.19;100.00
57050;BME280;42935;50.966;16.992;2023-02-12T10:55:25;103597.40;;;6.75;100.00
57050;BME280;42935;50.966;16.992;2023-02-12T10:58:33;103594.21;;;6.58;100.00
57050;BME280;42935;50.966;16.992;2023-02-12T11:01:45;103606.27;;;6.61;100.00
57050;BME280;42935;50.966;16.992;2023-02-12T11:04:58;103602.22;;;6.86;100.00
57050;BME280;42935;50.966;16.992;2023-02-12T11:11:37;103598.56;;;6.83;100.00
57050;BME280;42935;50.966;16.992;2023-02-12T11:14:51;103599.26;;;7.07;100.00
57050;BME280;42935;50.966;16.992;2023-02-12T11:18:03;103597.31;;;6.74;100.00
57050;BME280;42935;50.966;16.992;2023-02-12T11:21:14;103593.34;;;6.48;100.00
57050;BME280;42935;50.966;16.992;2023-02-12T11:24:31;103587.80;;;6.53;100.00
57050;BME280;42935;50.966;16.992;2023-02-12T11:27:41;103597.59;;;6.63;100.00
57050;BME280;42935;50.966;16.992;2023-02-12T11:30:57;103592.56;;;6.83;100.00
57050;BME280;42935;50.966;16.992;2023-02-12T11:34:16;103588.49;;;7.13;100.00
57050;BME280;42935;50.966;16.992;2023-02-12T11:37:27;103590.02;;;7.28;100.00
57050;BME280;42935;50.966;16.992;2023-02-12T11:40:45;103577.80;;;7.08;100.00
57050;BME280;42935;50.966;16.992;2023-02-12T11:43:57;103591.55;;;6.77;100.00
57050;BME280;42935;50.966;16.992;2023-02-12T11:47:10;103591.95;;;7.05;100.00
57050;BME280;42935;50.966;16.992;2023-02-12T11:50:29;103594.70;;;6.96;100.00
57050;BME280;42935;50.966;16.992;2023-02-12T11:53:41;103593.66;;;7.04;100.00
57050;BME280;42935;50.966;16.992;2023-02-12T11:56:51;103586.74;;;6.94;100.00
57050;BME280;42935;50.966;16.992;2023-02-12T12:00:18;103582.25;;;7.04;100.00
57050;BME280;42935;50.966;16.992;2023-02-12T12:03:38;103586.44;;;7.07;100.00
57050;BME280;42935;50.966;16.992;2023-02-12T12:06:57;103590.32;;;7.16;100.00
57050;BME280;42935;50.966;16.992;2023-02-12T12:13:40;103589.27;;;6.86;100.00
57050;BME280;42935;50.966;16.992;2023-02-12T12:17:03;103577.52;;;6.87;100.00
57050;BME280;42935;50.966;16.992;2023-02-12T12:20:27;103583.30;;;7.12;100.00
57050;BME280;42935;50.966;16.992;2023-02-12T12:23:48;103581.43;;;7.38;100.00
57050;BME280;42935;50.966;16.992;2023-02-12T12:27:13;103567.99;;;7.06;100.00
57050;BME280;42935;50.966;16.992;2023-02-12T12:34:08;103584.00;;;6.99;100.00
57050;BME280;42935;50.966;16.992;2023-02-12T12:37:36;103573.56;;;6.85;100.00
57050;BME280;42935;50.966;16.992;2023-02-12T13:01:04;103571.05;;;6.79;100.00
57050;BME280;42935;50.966;16.992;2023-02-12T13:04:26;103557.66;;;6.75;100.00
57050;BME280;42935;50.966;16.992;2023-02-12T13:07:45;103558.64;;;6.73;100.00
57050;BME280;42935;50.966;16.992;2023-02-12T13:11:01;103564.69;;;6.77;100.00
57050;BME280;42935;50.966;16.992;2023-02-12T13:27:38;103575.37;;;6.48;100.00
57050;BME280;42935;50.966;16.992;2023-02-12T13:30:51;103584.16;;;6.55;100.00
57050;BME280;42935;50.966;16.992;2023-02-12T13:34:04;103585.56;;;6.57;100.00
57050;BME280;42935;50.966;16.992;2023-02-12T13:37:17;103577.77;;;6.53;100.00
57050;BME280;42935;50.966;16.992;2023-02-12T13:40:27;103589.52;;;6.66;100.00
57050;BME280;42935;50.966;16.992;2023-02-12T13:43:51;103587.45;;;6.65;100.00
57050;BME280;42935;50.966;16.992;2023-02-12T13:57:12;103568.68;;;7.15;98.12
57050;BME280;42935;50.966;16.992;2023-02-12T14:03:42;103557.19;;;6.79;98.52
57050;BME280;42935;50.966;16.992;2023-02-12T14:13:44;103575.37;;;6.78;96.85
57050;BME280;42935;50.966;16.992;2023-02-12T14:16:46;103572.30;;;6.79;98.49
57050;BME280;42935;50.966;16.992;2023-02-12T14:20:06;103575.66;;;6.78;99.86
57050;BME280;42935;50.966;16.992;2023-02-12T14:23:25;103573.78;;;6.76;100.00
57050;BME280;42935;50.966;16.992;2023-02-12T14:26:36;103569.60;;;6.72;100.00
57050;BME280;42935;50.966;16.992;2023-02-12T14:36:37;103575.71;;;6.76;100.00
57050;BME280;42935;50.966;16.992;2023-02-12T14:39:46;103579.14;;;6.66;100.00
57050;BME280;42935;50.966;16.992;2023-02-12T14:42:56;103581.69;;;6.72;100.00
57050;BME280;42935;50.966;16.992;2023-02-12T14:49:35;103576.63;;;6.75;100.00
57050;BME280;42935;50.966;16.992;2023-02-12T14:52:52;103586.01;;;7.15;100.00
57050;BME280;42935;50.966;16.992;2023-02-12T14:56:04;103576.83;;;7.38;100.00
57050;BME280;42935;50.966;16.992;2023-02-12T14:59:21;103587.80;;;7.47;100.00
57050;BME280;42935;50.966;16.992;2023-02-12T15:02:33;103591.99;;;7.43;100.00
57050;BME280;42935;50.966;16.992;2023-02-12T15:09:10;103590.15;;;7.15;100.00
57050;BME280;42935;50.966;16.992;2023-02-12T15:12:26;103586.67;;;7.01;100.00
57050;BME280;42935;50.966;16.992;2023-02-12T15:19:06;103558.09;;;6.62;100.00
57050;BME280;42935;50.966;16.992;2023-02-12T15:25:40;103565.56;;;6.49;100.00
57050;BME280;42935;50.966;16.992;2023-02-12T15:28:53;103584.85;;;6.52;100.00
57050;BME280;42935;50.966;16.992;2023-02-12T15:32:03;103588.69;;;6.53;100.00
57050;BME280;42935;50.966;16.992;2023-02-12T15:38:35;103595.45;;;6.31;100.00
57050;BME280;42935;50.966;16.992;2023-02-12T15:41:44;103587.93;;;6.32;100.00
57050;BME280;42935;50.966;16.992;2023-02-12T15:48:15;103598.62;;;6.03;100.00
57050;BME280;42935;50.966;16.992;2023-02-12T15:51:36;103587.00;;;5.84;100.00
57050;BME280;42935;50.966;16.992;2023-02-12T15:54:45;103561.31;;;5.55;100.00
57050;BME280;42935;50.966;16.992;2023-02-12T15:57:56;103585.80;;;5.71;100.00
57050;BME280;42935;50.966;16.992;2023-02-12T16:01:05;103607.55;;;5.71;100.00
57050;BME280;42935;50.966;16.992;2023-02-12T16:04:14;103607.58;;;5.58;100.00
57050;BME280;42935;50.966;16.992;2023-02-12T16:07:25;103611.42;;;5.56;100.00
57050;BME280;42935;50.966;16.992;2023-02-12T16:10:37;103614.62;;;5.44;100.00
57050;BME280;42935;50.966;16.992;2023-02-12T16:13:50;103596.02;;;5.41;100.00
57050;BME280;42935;50.966;16.992;2023-02-12T16:16:58;103609.81;;;5.53;100.00
57050;BME280;42935;50.966;16.992;2023-02-12T16:23:25;103614.36;;;5.58;100.00
57050;BME280;42935;50.966;16.992;2023-02-12T16:26:34;103610.09;;;5.68;100.00
57050;BME280;42935;50.966;16.992;2023-02-12T16:29:52;103620.48;;;5.72;100.00
57050;BME280;42935;50.966;16.992;2023-02-12T16:33:02;103628.82;;;5.49;100.00
57050;BME280;42935;50.966;16.992;2023-02-12T16:43:00;103633.16;;;5.16;100.00
57050;BME280;42935;50.966;16.992;2023-02-12T16:46:07;103637.66;;;5.20;100.00
57050;BME280;42935;50.966;16.992;2023-02-12T16:49:20;103634.55;;;5.20;100.00
57050;BME280;42935;50.966;16.992;2023-02-12T16:52:34;103633.45;;;5.25;100.00
57050;BME280;42935;50.966;16.992;2023-02-12T16:55:41;103636.59;;;5.18;100.00
57050;BME280;42935;50.966;16.992;2023-02-12T16:58:52;103636.30;;;5.11;100.00
57050;BME280;42935;50.966;16.992;2023-02-12T17:02:13;103631.69;;;4.97;100.00
57050;BME280;42935;50.966;16.992;2023-02-12T17:05:24;103650.09;;;4.93;100.00
57050;BME280;42935;50.966;16.992;2023-02-12T17:08:37;103637.63;;;4.82;100.00
57050;BME280;42935;50.966;16.992;2023-02-12T17:11:44;103645.09;;;4.84;100.00
57050;BME280;42935;50.966;16.992;2023-02-12T17:14:52;103653.64;;;4.72;100.00
57050;BME280;42935;50.966;16.992;2023-02-12T17:18:03;103654.23;;;4.69;100.00
57050;BME280;42935;50.966;16.992;2023-02-12T17:21:25;103651.33;;;4.64;100.00
57050;BME280;42935;50.966;16.992;2023-02-12T17:24:34;103648.90;;;4.59;100.00
57050;BME280;42935;50.966;16.992;2023-02-12T17:27:43;103650.77;;;4.55;100.00
57050;BME280;42935;50.966;16.992;2023-02-12T17:30:58;103664.05;;;4.57;100.00
57050;BME280;42935;50.966;16.992;2023-02-12T17:34:14;103655.42;;;4.31;100.00
57050;BME280;42935;50.966;16.992;2023-02-12T17:37:28;103656.34;;;4.21;100.00
57050;BME280;42935;50.966;16.992;2023-02-12T17:40:39;103657.57;;;4.23;100.00
57050;BME280;42935;50.966;16.992;2023-02-12T17:43:55;103648.78;;;4.20;100.00
57050;BME280;42935;50.966;16.992;2023-02-12T17:47:12;103658.27;;;4.11;100.00
57050;BME280;42935;50.966;16.992;2023-02-12T17:50:26;103647.39;;;4.00;100.00
57050;BME280;42935;50.966;16.992;2023-02-12T17:53:40;103647.61;;;3.84;100.00
57050;BME280;42935;50.966;16.992;2023-02-12T17:56:58;103637.15;;;3.81;100.00
57050;BME280;42935;50.966;16.992;2023-02-12T18:00:17;103645.22;;;4.04;100.00
57050;BME280;42935;50.966;16.992;2023-02-12T18:03:35;103655.17;;;4.04;100.00
57050;BME280;42935;50.966;16.992;2023-02-12T18:06:44;103657.80;;;3.92;100.00
57050;BME280;42935;50.966;16.992;2023-02-12T18:09:53;103645.96;;;3.65;100.00
57050;BME280;42935;50.966;16.992;2023-02-12T18:13:06;103649.31;;;3.61;100.00
57050;BME280;42935;50.966;16.992;2023-02-12T18:16:22;103651.30;;;3.68;100.00
57050;BME280;42935;50.966;16.992;2023-02-12T18:19:48;103658.16;;;3.67;100.00
57050;BME280;42935;50.966;16.992;2023-02-12T18:22:58;103649.54;;;3.72;100.00
57050;BME280;42935;50.966;16.992;2023-02-12T18:26:11;103642.28;;;3.63;100.00
57050;BME280;42935;50.966;16.992;2023-02-12T18:29:28;103657.27;;;3.79;100.00
57050;BME280;42935;50.966;16.992;2023-02-12T18:32:41;103652.58;;;3.69;100.00
57050;BME280;42935;50.966;16.992;2023-02-12T18:35:57;103650.83;;;3.76;100.00
57050;BME280;42935;50.966;16.992;2023-02-12T18:39:13;103644.84;;;3.46;100.00
57050;BME280;42935;50.966;16.992;2023-02-12T18:42:30;103657.09;;;3.42;100.00
57050;BME280;42935;50.966;16.992;2023-02-12T18:45:40;103649.48;;;3.43;100.00
57050;BME280;42935;50.966;16.992;2023-02-12T18:48:54;103660.59;;;3.50;100.00
57050;BME280;42935;50.966;16.992;2023-02-12T18:52:04;103657.52;;;3.59;100.00
57050;BME280;42935;50.966;16.992;2023-02-12T18:55:15;103646.52;;;3.53;100.00
57050;BME280;42935;50.966;16.992;2023-02-12T18:58:22;103655.03;;;3.63;100.00
57050;BME280;42935;50.966;16.992;2023-02-12T19:01:35;103650.18;;;3.58;100.00
57050;BME280;42935;50.966;16.992;2023-02-12T19:04:45;103636.90;;;3.50;100.00
57050;BME280;42935;50.966;16.992;2023-02-12T19:07:59;103641.81;;;3.58;100.00
57050;BME280;42935;50.966;16.992;2023-02-12T19:11:11;103646.31;;;3.43;100.00
57050;BME280;42935;50.966;16.992;2023-02-12T19:14:22;103635.53;;;3.46;100.00
57050;BME280;42935;50.966;16.992;2023-02-12T19:17:35;103648.67;;;3.58;100.00
57050;BME280;42935;50.966;16.992;2023-02-12T19:20:46;103652.59;;;3.54;100.00
57050;BME280;42935;50.966;16.992;2023-02-12T19:23:58;103657.01;;;3.45;100.00
57050;BME280;42935;50.966;16.992;2023-02-12T19:27:10;103643.71;;;3.30;100.00
57050;BME280;42935;50.966;16.992;2023-02-12T19:30:19;103643.09;;;3.23;100.00
57050;BME280;42935;50.966;16.992;2023-02-12T19:33:28;103651.73;;;3.37;100.00
57050;BME280;42935;50.966;16.992;2023-02-12T19:36:46;103625.63;;;3.47;100.00
57050;BME280;42935;50.966;16.992;2023-02-12T19:39:59;103643.21;;;3.58;100.00
57050;BME280;42935;50.966;16.992;2023-02-12T19:43:13;103653.64;;;3.54;100.00
57050;BME280;42935;50.966;16.992;2023-02-12T19:46:28;103647.16;;;3.47;100.00